sensor_id;sensor_type;location;lat;lon;timestamp;temperature;humidity
18365;DHT22;9309;52.126;11.616;2024-02-14T00:00:14;4.10;79.10
18365;DHT22;9309;52.126;11.616;2024-02-14T00:02:43;4.00;79.30
18365;DHT22;9309;52.126;11.616;2024-02-14T00:05:09;4.00;79.30
18365;DHT22;9309;52.126;11.616;2024-02-14T00:07:37;4.00;79.60
18365;DHT22;9309;52.126;11.616;2024-02-14T00:10:06;4.00;79.60
18365;DHT22;9309;52.126;11.616;2024-02-14T00:12:33;4.20;79.20
18365;DHT22;9309;52.126;11.616;2024-02-14T00:15:00;4.10;79.50
18365;DHT22;9309;52.126;11.616;2024-02-14T00:17:28;4.20;79.10
18365;DHT22;9309;52.126;11.616;2024-02-14T00:19:55;4.20;79.40
18365;DHT22;9309;52.126;11.616;2024-02-14T00:22:22;4.40;78.80
18365;DHT22;9309;52.126;11.616;2024-02-14T00:24:48;4.30;78.60
18365;DHT22;9309;52.126;11.616;2024-02-14T00:27:16;4.30;78.70
18365;DHT22;9309;52.126;11.616;2024-02-14T00:29:43;4.20;79.10
18365;DHT22;9309;52.126;11.616;2024-02-14T00:32:12;4.20;79.10
18365;DHT22;9309;52.126;11.616;2024-02-14T00:34:38;4.30;79.20
18365;DHT22;9309;52.126;11.616;2024-02-14T00:37:05;4.30;78.90
18365;DHT22;9309;52.126;11.616;2024-02-14T00:39:31;4.20;79.00
18365;DHT22;9309;52.126;11.616;2024-02-14T00:41:58;4.20;79.00
18365;DHT22;9309;52.126;11.616;2024-02-14T00:44:26;4.30;78.80
18365;DHT22;9309;52.126;11.616;2024-02-14T00:46:55;4.40;78.70
18365;DHT22;9309;52.126;11.616;2024-02-14T00:49:21;4.40;78.70
18365;DHT22;9309;52.126;11.616;2024-02-14T00:51:48;4.40;78.40
18365;DHT22;9309;52.126;11.616;2024-02-14T00:54:14;4.50;78.80
18365;DHT22;9309;52.126;11.616;2024-02-14T00:56:41;4.60;78.20
18365;DHT22;9309;52.126;11.616;2024-02-14T00:59:07;4.60;78.50
18365;DHT22;9309;52.126;11.616;2024-02-14T01:01:35;4.70;78.00
18365;DHT22;9309;52.126;11.616;2024-02-14T01:04:02;4.70;78.60
18365;DHT22;9309;52.126;11.616;2024-02-14T01:06:29;4.80;78.30
18365;DHT22;9309;52.126;11.616;2024-02-14T01:08:56;4.80;77.20
18365;DHT22;9309;52.126;11.616;2024-02-14T01:11:22;4.70;77.20
18365;DHT22;9309;52.126;11.616;2024-02-14T01:13:49;4.90;77.30
18365;DHT22;9309;52.126;11.616;2024-02-14T01:16:15;5.10;76.90
18365;DHT22;9309;52.126;11.616;2024-02-14T01:18:43;5.10;77.30
18365;DHT22;9309;52.126;11.616;2024-02-14T01:21:09;5.20;77.30
18365;DHT22;9309;52.126;11.616;2024-02-14T01:23:36;5.20;77.40
18365;DHT22;9309;52.126;11.616;2024-02-14T01:26:03;5.10;78.10
18365;DHT22;9309;52.126;11.616;2024-02-14T01:28:30;5.20;77.50
18365;DHT22;9309;52.126;11.616;2024-02-14T01:30:56;5.30;77.80
18365;DHT22;9309;52.126;11.616;2024-02-14T01:33:23;5.30;77.20
18365;DHT22;9309;52.126;11.616;2024-02-14T01:35:51;5.20;76.40
18365;DHT22;9309;52.126;11.616;2024-02-14T01:38:17;5.10;77.90
18365;DHT22;9309;52.126;11.616;2024-02-14T01:40:44;5.20;77.30
18365;DHT22;9309;52.126;11.616;2024-02-14T01:43:10;5.10;77.30
18365;DHT22;9309;52.126;11.616;2024-02-14T01:45:39;5.00;77.90
18365;DHT22;9309;52.126;11.616;2024-02-14T01:48:06;5.10;77.70
18365;DHT22;9309;52.126;11.616;2024-02-14T01:50:34;5.00;77.90
18365;DHT22;9309;52.126;11.616;2024-02-14T01:53:02;5.00;77.80
18365;DHT22;9309;52.126;11.616;2024-02-14T01:55:28;4.90;78.30
18365;DHT22;9309;52.126;11.616;2024-02-14T01:57:55;4.90;79.00
18365;DHT22;9309;52.126;11.616;2024-02-14T02:00:22;5.00;78.40
18365;DHT22;9309;52.126;11.616;2024-02-14T02:02:48;4.90;78.30
18365;DHT22;9309;52.126;11.616;2024-02-14T02:05:18;4.90;79.00
18365;DHT22;9309;52.126;11.616;2024-02-14T02:07:45;4.90;78.90
18365;DHT22;9309;52.126;11.616;2024-02-14T02:10:15;4.80;79.30
18365;DHT22;9309;52.126;11.616;2024-02-14T02:12:41;4.80;79.60
18365;DHT22;9309;52.126;11.616;2024-02-14T02:15:08;4.80;79.80
18365;DHT22;9309;52.126;11.616;2024-02-14T02:17:38;4.80;80.10
18365;DHT22;9309;52.126;11.616;2024-02-14T02:20:05;4.70;80.30
18365;DHT22;9309;52.126;11.616;2024-02-14T02:22:33;4.70;80.80
18365;DHT22;9309;52.126;11.616;2024-02-14T02:25:02;4.70;80.70
18365;DHT22;9309;52.126;11.616;2024-02-14T02:27:28;4.70;81.00
18365;DHT22;9309;52.126;11.616;2024-02-14T02:29:55;4.60;80.90
18365;DHT22;9309;52.126;11.616;2024-02-14T02:32:21;4.60;81.20
18365;DHT22;9309;52.126;11.616;2024-02-14T02:34:48;4.70;81.40
18365;DHT22;9309;52.126;11.616;2024-02-14T02:37:15;4.70;81.40
18365;DHT22;9309;52.126;11.616;2024-02-14T02:39:42;4.70;81.50
18365;DHT22;9309;52.126;11.616;2024-02-14T02:42:09;4.70;81.50
18365;DHT22;9309;52.126;11.616;2024-02-14T02:44:38;4.80;81.00
18365;DHT22;9309;52.126;11.616;2024-02-14T02:47:05;4.80;80.90
18365;DHT22;9309;52.126;11.616;2024-02-14T02:49:32;4.90;80.90
18365;DHT22;9309;52.126;11.616;2024-02-14T02:51:58;4.90;80.60
18365;DHT22;9309;52.126;11.616;2024-02-14T02:54:25;4.90;80.80
18365;DHT22;9309;52.126;11.616;2024-02-14T02:56:51;5.00;80.60
18365;DHT22;9309;52.126;11.616;2024-02-14T02:59:19;5.00;81.00
18365;DHT22;9309;52.126;11.616;2024-02-14T03:01:47;5.10;80.60
18365;DHT22;9309;52.126;11.616;2024-02-14T03:04:14;5.10;80.60
18365;DHT22;9309;52.126;11.616;2024-02-14T03:06:41;5.00;80.60
18365;DHT22;9309;52.126;11.616;2024-02-14T03:09:08;5.10;80.60
18365;DHT22;9309;52.126;11.616;2024-02-14T03:11:35;5.10;80.40
18365;DHT22;9309;52.126;11.616;2024-02-14T03:14:02;5.00;80.90
18365;DHT22;9309;52.126;11.616;2024-02-14T03:16:30;5.00;80.90
18365;DHT22;9309;52.126;11.616;2024-02-14T03:18:57;5.00;80.90
18365;DHT22;9309;52.126;11.616;2024-02-14T03:21:24;5.00;80.90
18365;DHT22;9309;52.126;11.616;2024-02-14T03:23:50;5.10;81.10
18365;DHT22;9309;52.126;11.616;2024-02-14T03:26:19;5.00;81.30
18365;DHT22;9309;52.126;11.616;2024-02-14T03:28:45;4.90;81.40
18365;DHT22;9309;52.126;11.616;2024-02-14T03:31:14;4.90;81.60
18365;DHT22;9309;52.126;11.616;2024-02-14T03:33:42;4.80;82.20
18365;DHT22;9309;52.126;11.616;2024-02-14T03:36:08;4.80;82.70
18365;DHT22;9309;52.126;11.616;2024-02-14T03:38:35;4.90;82.30
18365;DHT22;9309;52.126;11.616;2024-02-14T03:41:05;4.90;82.40
18365;DHT22;9309;52.126;11.616;2024-02-14T03:43:31;4.80;82.70
18365;DHT22;9309;52.126;11.616;2024-02-14T03:45:58;4.80;82.50
18365;DHT22;9309;52.126;11.616;2024-02-14T03:48:25;4.80;82.50
18365;DHT22;9309;52.126;11.616;2024-02-14T03:50:53;4.80;82.60
18365;DHT22;9309;52.126;11.616;2024-02-14T03:53:19;5.00;82.00
18365;DHT22;9309;52.126;11.616;2024-02-14T03:55:46;5.10;81.60
18365;DHT22;9309;52.126;11.616;2024-02-14T03:58:12;5.20;81.00
18365;DHT22;9309;52.126;11.616;2024-02-14T04:00:40;5.20;80.70
18365;DHT22;9309;52.126;11.616;2024-02-14T04:03:11;5.30;80.40
18365;DHT22;9309;52.126;11.616;2024-02-14T04:05:37;5.30;80.10
18365;DHT22;9309;52.126;11.616;2024-02-14T04:08:06;5.30;79.80
18365;DHT22;9309;52.126;11.616;2024-02-14T04:10:35;5.30;79.40
18365;DHT22;9309;52.126;11.616;2024-02-14T04:13:02;5.30;79.80
18365;DHT22;9309;52.126;11.616;2024-02-14T04:15:29;5.30;79.50
18365;DHT22;9309;52.126;11.616;2024-02-14T04:17:55;5.30;79.60
18365;DHT22;9309;52.126;11.616;2024-02-14T04:20:22;5.40;79.50
18365;DHT22;9309;52.126;11.616;2024-02-14T04:22:49;5.30;79.60
18365;DHT22;9309;52.126;11.616;2024-02-14T04:25:17;5.30;79.80
18365;DHT22;9309;52.126;11.616;2024-02-14T04:27:43;5.30;79.50
18365;DHT22;9309;52.126;11.616;2024-02-14T04:30:10;5.20;79.70
18365;DHT22;9309;52.126;11.616;2024-02-14T04:32:37;5.30;79.60
18365;DHT22;9309;52.126;11.616;2024-02-14T04:35:04;5.20;79.70
18365;DHT22;9309;52.126;11.616;2024-02-14T04:37:31;5.20;80.00
18365;DHT22;9309;52.126;11.616;2024-02-14T04:39:58;5.20;79.90
18365;DHT22;9309;52.126;11.616;2024-02-14T04:42:26;5.30;79.70
18365;DHT22;9309;52.126;11.616;2024-02-14T04:44:52;5.30;79.90
18365;DHT22;9309;52.126;11.616;2024-02-14T04:47:19;5.30;80.40
18365;DHT22;9309;52.126;11.616;2024-02-14T04:49:46;5.30;81.00
18365;DHT22;9309;52.126;11.616;2024-02-14T04:52:12;5.30;81.90
18365;DHT22;9309;52.126;11.616;2024-02-14T04:54:39;5.20;82.30
18365;DHT22;9309;52.126;11.616;2024-02-14T04:57:05;5.20;82.70
18365;DHT22;9309;52.126;11.616;2024-02-14T04:59:33;5.20;83.80
18365;DHT22;9309;52.126;11.616;2024-02-14T05:02:00;5.10;84.70
18365;DHT22;9309;52.126;11.616;2024-02-14T05:04:26;5.00;84.60
18365;DHT22;9309;52.126;11.616;2024-02-14T05:06:55;5.00;85.60
18365;DHT22;9309;52.126;11.616;2024-02-14T05:09:21;4.90;86.40
18365;DHT22;9309;52.126;11.616;2024-02-14T05:11:48;5.00;86.30
18365;DHT22;9309;52.126;11.616;2024-02-14T05:14:15;4.90;86.20
18365;DHT22;9309;52.126;11.616;2024-02-14T05:16:42;4.90;86.70
18365;DHT22;9309;52.126;11.616;2024-02-14T05:19:09;4.90;86.90
18365;DHT22;9309;52.126;11.616;2024-02-14T05:21:36;4.90;87.40
18365;DHT22;9309;52.126;11.616;2024-02-14T05:24:03;4.80;87.30
18365;DHT22;9309;52.126;11.616;2024-02-14T05:26:30;4.80;86.80
18365;DHT22;9309;52.126;11.616;2024-02-14T05:28:56;4.90;87.10
18365;DHT22;9309;52.126;11.616;2024-02-14T05:31:24;4.90;87.00
18365;DHT22;9309;52.126;11.616;2024-02-14T05:33:51;4.90;87.00
18365;DHT22;9309;52.126;11.616;2024-02-14T05:36:18;4.90;87.10
18365;DHT22;9309;52.126;11.616;2024-02-14T05:38:45;4.90;87.10
18365;DHT22;9309;52.126;11.616;2024-02-14T05:41:11;5.00;87.10
18365;DHT22;9309;52.126;11.616;2024-02-14T05:43:38;5.00;87.00
18365;DHT22;9309;52.126;11.616;2024-02-14T05:46:04;5.00;87.20
18365;DHT22;9309;52.126;11.616;2024-02-14T05:48:31;5.00;86.70
18365;DHT22;9309;52.126;11.616;2024-02-14T05:50:59;5.10;86.40
18365;DHT22;9309;52.126;11.616;2024-02-14T05:53:25;5.10;85.20
18365;DHT22;9309;52.126;11.616;2024-02-14T05:55:52;5.20;85.60
18365;DHT22;9309;52.126;11.616;2024-02-14T05:58:18;5.20;85.50
18365;DHT22;9309;52.126;11.616;2024-02-14T06:00:45;5.30;85.70
18365;DHT22;9309;52.126;11.616;2024-02-14T06:03:12;5.30;85.40
18365;DHT22;9309;52.126;11.616;2024-02-14T06:05:38;5.30;86.00
18365;DHT22;9309;52.126;11.616;2024-02-14T06:08:06;5.30;85.50
18365;DHT22;9309;52.126;11.616;2024-02-14T06:10:33;5.40;85.50
18365;DHT22;9309;52.126;11.616;2024-02-14T06:13:00;5.40;85.80
18365;DHT22;9309;52.126;11.616;2024-02-14T06:15:27;5.40;85.70
18365;DHT22;9309;52.126;11.616;2024-02-14T06:17:53;5.30;86.20
18365;DHT22;9309;52.126;11.616;2024-02-14T06:20:20;5.30;86.60
18365;DHT22;9309;52.126;11.616;2024-02-14T06:22:46;5.30;86.20
18365;DHT22;9309;52.126;11.616;2024-02-14T06:25:14;5.30;86.40
18365;DHT22;9309;52.126;11.616;2024-02-14T06:27:41;5.20;86.60
18365;DHT22;9309;52.126;11.616;2024-02-14T06:30:08;5.30;86.80
18365;DHT22;9309;52.126;11.616;2024-02-14T06:32:35;5.20;86.50
18365;DHT22;9309;52.126;11.616;2024-02-14T06:35:02;5.30;87.10
18365;DHT22;9309;52.126;11.616;2024-02-14T06:37:28;5.30;86.80
18365;DHT22;9309;52.126;11.616;2024-02-14T06:39:55;5.30;87.30
18365;DHT22;9309;52.126;11.616;2024-02-14T06:42:23;5.30;86.30
18365;DHT22;9309;52.126;11.616;2024-02-14T06:44:49;5.40;86.60
18365;DHT22;9309;52.126;11.616;2024-02-14T06:47:16;5.50;86.50
18365;DHT22;9309;52.126;11.616;2024-02-14T06:49:42;5.40;87.20
18365;DHT22;9309;52.126;11.616;2024-02-14T06:52:09;5.40;88.30
18365;DHT22;9309;52.126;11.616;2024-02-14T06:54:35;5.40;88.60
18365;DHT22;9309;52.126;11.616;2024-02-14T06:57:02;5.30;89.30
18365;DHT22;9309;52.126;11.616;2024-02-14T06:59:30;5.30;89.10
18365;DHT22;9309;52.126;11.616;2024-02-14T07:01:56;5.30;89.70
18365;DHT22;9309;52.126;11.616;2024-02-14T07:04:23;5.30;89.10
18365;DHT22;9309;52.126;11.616;2024-02-14T07:06:52;5.30;89.50
18365;DHT22;9309;52.126;11.616;2024-02-14T07:09:19;5.30;89.70
18365;DHT22;9309;52.126;11.616;2024-02-14T07:11:45;5.30;89.80
18365;DHT22;9309;52.126;11.616;2024-02-14T07:14:12;5.30;89.90
18365;DHT22;9309;52.126;11.616;2024-02-14T07:16:39;5.30;90.20
18365;DHT22;9309;52.126;11.616;2024-02-14T07:19:06;5.30;90.80
18365;DHT22;9309;52.126;11.616;2024-02-14T07:21:33;5.30;91.30
18365;DHT22;9309;52.126;11.616;2024-02-14T07:23:59;5.30;91.70
18365;DHT22;9309;52.126;11.616;2024-02-14T07:26:26;5.30;91.90
18365;DHT22;9309;52.126;11.616;2024-02-14T07:28:52;5.30;92.00
18365;DHT22;9309;52.126;11.616;2024-02-14T07:31:20;5.30;92.40
18365;DHT22;9309;52.126;11.616;2024-02-14T07:33:47;5.30;92.40
18365;DHT22;9309;52.126;11.616;2024-02-14T07:36:18;5.30;92.50
18365;DHT22;9309;52.126;11.616;2024-02-14T07:38:45;5.30;92.70
18365;DHT22;9309;52.126;11.616;2024-02-14T07:41:11;5.30;92.90
18365;DHT22;9309;52.126;11.616;2024-02-14T07:43:38;5.30;93.10
18365;DHT22;9309;52.126;11.616;2024-02-14T07:46:04;5.40;93.20
18365;DHT22;9309;52.126;11.616;2024-02-14T07:48:32;5.40;92.90
18365;DHT22;9309;52.126;11.616;2024-02-14T07:51:00;5.50;92.90
18365;DHT22;9309;52.126;11.616;2024-02-14T07:53:27;5.50;92.10
18365;DHT22;9309;52.126;11.616;2024-02-14T07:55:53;5.60;91.80
18365;DHT22;9309;52.126;11.616;2024-02-14T07:58:20;5.70;91.30
18365;DHT22;9309;52.126;11.616;2024-02-14T08:00:46;5.80;90.90
18365;DHT22;9309;52.126;11.616;2024-02-14T08:03:13;5.80;90.40
18365;DHT22;9309;52.126;11.616;2024-02-14T08:05:39;5.90;90.70
18365;DHT22;9309;52.126;11.616;2024-02-14T08:08:09;5.90;90.30
18365;DHT22;9309;52.126;11.616;2024-02-14T08:10:35;6.00;90.50
18365;DHT22;9309;52.126;11.616;2024-02-14T08:13:02;6.10;90.20
18365;DHT22;9309;52.126;11.616;2024-02-14T08:15:30;6.10;90.30
18365;DHT22;9309;52.126;11.616;2024-02-14T08:17:57;6.10;91.10
18365;DHT22;9309;52.126;11.616;2024-02-14T08:20:24;6.20;90.80
18365;DHT22;9309;52.126;11.616;2024-02-14T08:22:51;6.20;91.10
18365;DHT22;9309;52.126;11.616;2024-02-14T08:25:19;6.20;90.90
18365;DHT22;9309;52.126;11.616;2024-02-14T08:27:45;6.30;90.50
18365;DHT22;9309;52.126;11.616;2024-02-14T08:30:13;6.30;90.90
18365;DHT22;9309;52.126;11.616;2024-02-14T08:32:40;6.40;90.90
18365;DHT22;9309;52.126;11.616;2024-02-14T08:35:07;6.40;91.50
18365;DHT22;9309;52.126;11.616;2024-02-14T08:37:35;6.40;91.70
18365;DHT22;9309;52.126;11.616;2024-02-14T08:40:03;6.50;92.30
18365;DHT22;9309;52.126;11.616;2024-02-14T08:42:32;6.50;92.00
18365;DHT22;9309;52.126;11.616;2024-02-14T08:44:59;6.50;92.20
18365;DHT22;9309;52.126;11.616;2024-02-14T08:47:26;6.60;92.00
18365;DHT22;9309;52.126;11.616;2024-02-14T08:49:52;6.80;91.20
18365;DHT22;9309;52.126;11.616;2024-02-14T08:52:19;7.00;90.40
18365;DHT22;9309;52.126;11.616;2024-02-14T08:54:46;6.90;91.50
18365;DHT22;9309;52.126;11.616;2024-02-14T08:57:13;7.00;91.60
18365;DHT22;9309;52.126;11.616;2024-02-14T08:59:41;7.00;91.80
18365;DHT22;9309;52.126;11.616;2024-02-14T09:02:09;7.10;91.50
18365;DHT22;9309;52.126;11.616;2024-02-14T09:04:36;7.00;91.80
18365;DHT22;9309;52.126;11.616;2024-02-14T09:07:02;7.10;91.90
18365;DHT22;9309;52.126;11.616;2024-02-14T09:09:29;7.00;92.60
18365;DHT22;9309;52.126;11.616;2024-02-14T09:11:56;7.40;91.60
18365;DHT22;9309;52.126;11.616;2024-02-14T09:14:23;7.50;90.80
18365;DHT22;9309;52.126;11.616;2024-02-14T09:16:50;7.50;90.50
18365;DHT22;9309;52.126;11.616;2024-02-14T09:19:17;7.50;90.60
18365;DHT22;9309;52.126;11.616;2024-02-14T09:21:43;7.50;90.70
18365;DHT22;9309;52.126;11.616;2024-02-14T09:24:10;7.60;90.90
18365;DHT22;9309;52.126;11.616;2024-02-14T09:26:38;7.50;91.20
18365;DHT22;9309;52.126;11.616;2024-02-14T09:29:05;7.50;91.30
18365;DHT22;9309;52.126;11.616;2024-02-14T09:31:31;7.60;91.10
18365;DHT22;9309;52.126;11.616;2024-02-14T09:33:59;7.60;91.20
18365;DHT22;9309;52.126;11.616;2024-02-14T09:36:26;7.60;91.60
18365;DHT22;9309;52.126;11.616;2024-02-14T09:38:52;7.70;91.10
18365;DHT22;9309;52.126;11.616;2024-02-14T09:41:22;7.80;91.10
18365;DHT22;9309;52.126;11.616;2024-02-14T09:43:49;8.00;90.60
18365;DHT22;9309;52.126;11.616;2024-02-14T09:46:15;7.90;90.30
18365;DHT22;9309;52.126;11.616;2024-02-14T09:48:42;7.70;91.90
18365;DHT22;9309;52.126;11.616;2024-02-14T09:51:11;7.60;92.90
18365;DHT22;9309;52.126;11.616;2024-02-14T09:53:38;7.50;93.60
18365;DHT22;9309;52.126;11.616;2024-02-14T09:56:04;7.50;93.80
18365;DHT22;9309;52.126;11.616;2024-02-14T09:58:30;7.60;94.00
18365;DHT22;9309;52.126;11.616;2024-02-14T10:00:57;7.70;93.50
18365;DHT22;9309;52.126;11.616;2024-02-14T10:03:24;7.80;92.80
18365;DHT22;9309;52.126;11.616;2024-02-14T10:05:51;7.80;92.80
18365;DHT22;9309;52.126;11.616;2024-02-14T10:08:19;7.80;93.10
18365;DHT22;9309;52.126;11.616;2024-02-14T10:10:46;7.90;93.00
18365;DHT22;9309;52.126;11.616;2024-02-14T10:13:12;7.90;92.30
18365;DHT22;9309;52.126;11.616;2024-02-14T10:15:39;8.00;92.30
18365;DHT22;9309;52.126;11.616;2024-02-14T10:18:06;7.80;92.90
18365;DHT22;9309;52.126;11.616;2024-02-14T10:20:34;7.90;93.70
18365;DHT22;9309;52.126;11.616;2024-02-14T10:23:07;7.90;93.10
18365;DHT22;9309;52.126;11.616;2024-02-14T10:25:36;7.80;93.50
18365;DHT22;9309;52.126;11.616;2024-02-14T10:28:04;7.90;93.50
18365;DHT22;9309;52.126;11.616;2024-02-14T10:30:34;8.10;92.90
18365;DHT22;9309;52.126;11.616;2024-02-14T10:33:01;8.00;92.70
18365;DHT22;9309;52.126;11.616;2024-02-14T10:35:29;8.10;92.80
18365;DHT22;9309;52.126;11.616;2024-02-14T10:37:57;8.30;91.50
18365;DHT22;9309;52.126;11.616;2024-02-14T10:40:26;8.40;91.30
18365;DHT22;9309;52.126;11.616;2024-02-14T10:42:54;8.50;90.50
18365;DHT22;9309;52.126;11.616;2024-02-14T10:45:23;8.40;90.80
18365;DHT22;9309;52.126;11.616;2024-02-14T10:47:50;8.50;90.10
18365;DHT22;9309;52.126;11.616;2024-02-14T10:50:17;8.50;89.90
18365;DHT22;9309;52.126;11.616;2024-02-14T10:52:46;8.40;90.60
18365;DHT22;9309;52.126;11.616;2024-02-14T10:55:14;8.50;90.60
18365;DHT22;9309;52.126;11.616;2024-02-14T10:57:42;8.50;90.80
18365;DHT22;9309;52.126;11.616;2024-02-14T11:00:12;8.60;90.40
18365;DHT22;9309;52.126;11.616;2024-02-14T11:02:40;8.70;90.20
18365;DHT22;9309;52.126;11.616;2024-02-14T11:05:11;9.00;88.90
18365;DHT22;9309;52.126;11.616;2024-02-14T11:07:43;9.20;87.80
18365;DHT22;9309;52.126;11.616;2024-02-14T11:10:12;9.40;87.20
18365;DHT22;9309;52.126;11.616;2024-02-14T11:12:40;9.30;87.00
18365;DHT22;9309;52.126;11.616;2024-02-14T11:15:10;9.60;86.50
18365;DHT22;9309;52.126;11.616;2024-02-14T11:17:38;9.60;85.70
18365;DHT22;9309;52.126;11.616;2024-02-14T11:20:12;9.70;85.40
18365;DHT22;9309;52.126;11.616;2024-02-14T11:22:39;9.90;84.20
18365;DHT22;9309;52.126;11.616;2024-02-14T11:25:06;9.90;84.30
18365;DHT22;9309;52.126;11.616;2024-02-14T11:27:33;9.80;84.00
18365;DHT22;9309;52.126;11.616;2024-02-14T11:29:59;9.90;84.30
18365;DHT22;9309;52.126;11.616;2024-02-14T11:32:26;10.00;84.10
18365;DHT22;9309;52.126;11.616;2024-02-14T11:34:55;10.00;83.90
18365;DHT22;9309;52.126;11.616;2024-02-14T11:37:26;10.20;82.90
18365;DHT22;9309;52.126;11.616;2024-02-14T11:39:53;10.00;83.60
18365;DHT22;9309;52.126;11.616;2024-02-14T11:42:23;10.00;84.00
18365;DHT22;9309;52.126;11.616;2024-02-14T11:44:50;9.90;84.40
18365;DHT22;9309;52.126;11.616;2024-02-14T11:47:16;9.90;84.50
18365;DHT22;9309;52.126;11.616;2024-02-14T11:49:43;10.00;84.40
18365;DHT22;9309;52.126;11.616;2024-02-14T11:52:11;10.00;84.70
18365;DHT22;9309;52.126;11.616;2024-02-14T11:54:38;10.00;84.60
18365;DHT22;9309;52.126;11.616;2024-02-14T11:57:04;9.90;84.90
18365;DHT22;9309;52.126;11.616;2024-02-14T11:59:33;10.00;83.90
18365;DHT22;9309;52.126;11.616;2024-02-14T12:02:00;10.00;84.50
18365;DHT22;9309;52.126;11.616;2024-02-14T12:04:28;10.10;83.90
18365;DHT22;9309;52.126;11.616;2024-02-14T12:06:54;10.30;83.00
18365;DHT22;9309;52.126;11.616;2024-02-14T12:09:22;10.50;82.40
18365;DHT22;9309;52.126;11.616;2024-02-14T12:11:49;10.60;81.80
18365;DHT22;9309;52.126;11.616;2024-02-14T12:17:19;10.80;80.50
18365;DHT22;9309;52.126;11.616;2024-02-14T12:19:47;11.20;79.80
18365;DHT22;9309;52.126;11.616;2024-02-14T12:22:15;11.50;78.30
18365;DHT22;9309;52.126;11.616;2024-02-14T12:24:45;11.80;77.20
18365;DHT22;9309;52.126;11.616;2024-02-14T12:27:13;11.70;77.10
18365;DHT22;9309;52.126;11.616;2024-02-14T12:29:39;11.80;76.60
18365;DHT22;9309;52.126;11.616;2024-02-14T12:32:06;12.10;75.80
18365;DHT22;9309;52.126;11.616;2024-02-14T12:34:33;12.20;75.40
18365;DHT22;9309;52.126;11.616;2024-02-14T12:37:00;12.50;73.50
18365;DHT22;9309;52.126;11.616;2024-02-14T12:39:28;12.30;74.30
18365;DHT22;9309;52.126;11.616;2024-02-14T12:41:56;12.20;75.00
18365;DHT22;9309;52.126;11.616;2024-02-14T12:44:23;12.20;74.90
18365;DHT22;9309;52.126;11.616;2024-02-14T12:46:49;12.20;74.90
18365;DHT22;9309;52.126;11.616;2024-02-14T12:49:16;12.40;74.90
18365;DHT22;9309;52.126;11.616;2024-02-14T12:51:43;12.50;74.40
18365;DHT22;9309;52.126;11.616;2024-02-14T12:54:10;12.70;74.40
18365;DHT22;9309;52.126;11.616;2024-02-14T12:56:37;12.60;74.10
18365;DHT22;9309;52.126;11.616;2024-02-14T12:59:06;12.60;74.70
18365;DHT22;9309;52.126;11.616;2024-02-14T13:01:32;12.50;75.10
18365;DHT22;9309;52.126;11.616;2024-02-14T13:03:59;12.30;75.80
18365;DHT22;9309;52.126;11.616;2024-02-14T13:06:30;12.30;76.10
18365;DHT22;9309;52.126;11.616;2024-02-14T13:08:57;12.00;77.00
18365;DHT22;9309;52.126;11.616;2024-02-14T13:11:23;11.90;77.70
18365;DHT22;9309;52.126;11.616;2024-02-14T13:13:50;11.80;78.10
18365;DHT22;9309;52.126;11.616;2024-02-14T13:16:18;11.80;78.10
18365;DHT22;9309;52.126;11.616;2024-02-14T13:18:45;11.90;78.50
18365;DHT22;9309;52.126;11.616;2024-02-14T13:21:11;11.80;78.80
18365;DHT22;9309;52.126;11.616;2024-02-14T13:23:38;11.70;78.30
18365;DHT22;9309;52.126;11.616;2024-02-14T13:26:05;11.80;77.60
18365;DHT22;9309;52.126;11.616;2024-02-14T13:28:33;11.90;77.80
18365;DHT22;9309;52.126;11.616;2024-02-14T13:30:59;12.10;77.60
18365;DHT22;9309;52.126;11.616;2024-02-14T13:33:27;12.00;77.50
18365;DHT22;9309;52.126;11.616;2024-02-14T13:35:54;12.00;77.40
18365;DHT22;9309;52.126;11.616;2024-02-14T13:38:20;12.10;76.50
18365;DHT22;9309;52.126;11.616;2024-02-14T13:40:47;12.10;76.60
18365;DHT22;9309;52.126;11.616;2024-02-14T13:43:14;12.10;76.20
18365;DHT22;9309;52.126;11.616;2024-02-14T13:45:43;12.10;76.10
18365;DHT22;9309;52.126;11.616;2024-02-14T13:48:10;12.30;75.70
18365;DHT22;9309;52.126;11.616;2024-02-14T13:50:38;12.30;76.00
18365;DHT22;9309;52.126;11.616;2024-02-14T13:53:04;12.50;75.20
18365;DHT22;9309;52.126;11.616;2024-02-14T13:55:31;12.70;74.30
18365;DHT22;9309;52.126;11.616;2024-02-14T13:57:57;12.60;74.70
18365;DHT22;9309;52.126;11.616;2024-02-14T14:00:24;12.60;75.20
18365;DHT22;9309;52.126;11.616;2024-02-14T14:02:50;12.70;75.10
18365;DHT22;9309;52.126;11.616;2024-02-14T14:05:17;12.80;74.80
18365;DHT22;9309;52.126;11.616;2024-02-14T14:07:45;13.90;72.40
18365;DHT22;9309;52.126;11.616;2024-02-14T14:10:12;15.20;66.40
18365;DHT22;9309;52.126;11.616;2024-02-14T14:12:38;15.20;65.80
18365;DHT22;9309;52.126;11.616;2024-02-14T14:15:05;14.60;66.20
18365;DHT22;9309;52.126;11.616;2024-02-14T14:17:34;13.70;69.60
18365;DHT22;9309;52.126;11.616;2024-02-14T14:20:01;13.30;71.40
18365;DHT22;9309;52.126;11.616;2024-02-14T14:22:29;13.30;71.40
18365;DHT22;9309;52.126;11.616;2024-02-14T14:24:56;13.30;71.30
18365;DHT22;9309;52.126;11.616;2024-02-14T14:27:32;13.40;71.30
18365;DHT22;9309;52.126;11.616;2024-02-14T14:30:01;13.20;71.60
18365;DHT22;9309;52.126;11.616;2024-02-14T14:32:28;13.20;71.80
18365;DHT22;9309;52.126;11.616;2024-02-14T14:34:55;13.10;72.10
18365;DHT22;9309;52.126;11.616;2024-02-14T14:37:21;12.90;73.10
18365;DHT22;9309;52.126;11.616;2024-02-14T14:39:48;12.80;73.80
18365;DHT22;9309;52.126;11.616;2024-02-14T14:42:16;12.70;74.30
18365;DHT22;9309;52.126;11.616;2024-02-14T14:44:43;12.60;75.50
18365;DHT22;9309;52.126;11.616;2024-02-14T14:47:09;12.60;75.40
18365;DHT22;9309;52.126;11.616;2024-02-14T14:49:36;12.50;76.60
18365;DHT22;9309;52.126;11.616;2024-02-14T14:52:03;12.60;75.50
18365;DHT22;9309;52.126;11.616;2024-02-14T14:54:30;12.80;75.60
18365;DHT22;9309;52.126;11.616;2024-02-14T14:56:56;12.90;74.90
18365;DHT22;9309;52.126;11.616;2024-02-14T14:59:24;13.00;74.20
18365;DHT22;9309;52.126;11.616;2024-02-14T15:01:51;12.90;74.90
18365;DHT22;9309;52.126;11.616;2024-02-14T15:04:19;13.00;73.90
18365;DHT22;9309;52.126;11.616;2024-02-14T15:06:45;12.90;74.10
18365;DHT22;9309;52.126;11.616;2024-02-14T15:09:12;12.90;74.00
18365;DHT22;9309;52.126;11.616;2024-02-14T15:11:39;12.80;74.30
18365;DHT22;9309;52.126;11.616;2024-02-14T15:14:05;12.70;75.00
18365;DHT22;9309;52.126;11.616;2024-02-14T15:16:34;12.50;75.50
18365;DHT22;9309;52.126;11.616;2024-02-14T15:19:00;12.40;75.80
18365;DHT22;9309;52.126;11.616;2024-02-14T15:21:27;12.30;77.10
18365;DHT22;9309;52.126;11.616;2024-02-14T15:23:53;11.90;78.60
18365;DHT22;9309;52.126;11.616;2024-02-14T15:26:20;11.90;78.50
18365;DHT22;9309;52.126;11.616;2024-02-14T15:28:49;11.80;78.20
18365;DHT22;9309;52.126;11.616;2024-02-14T15:31:23;11.70;78.90
18365;DHT22;9309;52.126;11.616;2024-02-14T15:34:08;11.60;79.70
18365;DHT22;9309;52.126;11.616;2024-02-14T15:36:36;11.40;80.30
18365;DHT22;9309;52.126;11.616;2024-02-14T15:39:02;11.50;79.50
18365;DHT22;9309;52.126;11.616;2024-02-14T15:41:29;11.30;80.30
18365;DHT22;9309;52.126;11.616;2024-02-14T15:43:55;11.30;80.00